Time;durP1;ratioP1;P1;durP2;ratioP2;P2;SDS_P1;SDS_P2;PMS_P1;PMS_P2;Temp;Humidity;BMP_temperature;BMP_pressure;BME280_temperature;BME280_humidity;BME280_pressure;Samples;Min_cycle;Max_cycle;Signal;HPM_P1;HPM_P2
2022/09/04 00:00:10;;;;;;;8.13;4.53;;;;;;;7.85;78.89;99683.34;4862160;29;20068;-59
2022/09/04 00:02:48;;;;;;;5.28;4.20;;;;;;;7.76;79.04;99664.31;4893389;29;20048;-60
2022/09/04 00:05:31;;;;;;;7.28;4.25;;;;;;;7.77;79.26;99679.16;4895819;29;20099;-60
2022/09/04 00:08:12;;;;;;;5.43;3.95;;;;;;;7.71;79.69;99672.88;4895927;29;20123;-60
2022/09/04 00:10:40;;;;;;;9.07;4.50;;;;;;;7.68;79.94;99677.78;4897007;29;20044;-60
2022/09/04 00:13:14;;;;;;;6.18;4.07;;;;;;;7.64;80.00;99676.56;4864456;29;20652;-58
2022/09/04 00:15:46;;;;;;;5.15;4.13;;;;;;;7.60;79.68;99678.81;4862008;29;20049;-60
2022/09/04 00:18:12;;;;;;;5.57;4.10;;;;;;;7.56;80.25;99677.66;4879899;29;20044;-57
2022/09/04 00:20:58;;;;;;;6.53;4.03;;;;;;;7.53;80.19;99679.88;4895691;29;20055;-59
2022/09/04 00:23:39;;;;;;;7.00;4.03;;;;;;;7.46;80.92;99675.44;4896558;29;20155;-58
2022/09/04 00:26:26;;;;;;;5.38;4.15;;;;;;;7.46;80.72;99683.34;4896942;29;20548;-59
2022/09/04 00:28:59;;;;;;;5.97;4.40;;;;;;;7.43;81.08;99682.97;4896357;29;20053;-59
2022/09/04 00:31:57;;;;;;;6.25;3.95;;;;;;;7.41;81.35;99687.63;4895436;29;20045;-59
2022/09/04 00:34:32;;;;;;;6.45;3.83;;;;;;;7.39;81.35;99687.06;4872579;29;20057;-60
2022/09/04 00:37:04;;;;;;;6.93;4.15;;;;;;;7.36;81.39;99679.56;4879016;29;20399;-59
2022/09/04 00:39:57;;;;;;;5.70;3.95;;;;;;;7.32;81.72;99681.78;4879877;29;20052;-59
2022/09/04 00:42:33;;;;;;;6.45;4.55;;;;;;;7.31;81.61;99689.91;4862094;29;20573;-59
2022/09/04 00:45:26;;;;;;;6.13;3.75;;;;;;;7.25;81.79;99681.81;4896334;29;20495;-58
2022/09/04 00:48:10;;;;;;;7.25;4.32;;;;;;;7.21;81.77;99687.72;4886654;29;20044;-59
2022/09/04 00:50:45;;;;;;;5.35;3.90;;;;;;;7.16;81.76;99687.53;4896427;29;20048;-59
2022/09/04 00:53:40;;;;;;;8.27;4.63;;;;;;;7.13;81.84;99685.31;4895147;29;20399;-59
2022/09/04 00:56:44;;;;;;;6.25;4.22;;;;;;;7.10;82.19;99689.16;4895051;29;20147;-59
2022/09/04 00:59:33;;;;;;;6.50;4.60;;;;;;;7.06;82.28;99680.06;4887749;29;20044;-58
2022/09/04 01:02:22;;;;;;;9.45;3.97;;;;;;;7.01;82.65;99679.88;4886375;29;20105;-57
2022/09/04 01:05:31;;;;;;;5.75;4.28;;;;;;;6.95;82.52;99686.78;4878968;29;20503;-58
2022/09/04 01:08:19;;;;;;;7.00;4.47;;;;;;;6.93;83.34;99680.88;4877041;29;20126;-59
2022/09/04 01:11:12;;;;;;;5.97;4.20;;;;;;;6.87;83.29;99676.44;4894976;29;20143;-58
2022/09/04 01:13:50;;;;;;;6.20;4.07;;;;;;;6.86;82.76;99693.28;4895989;29;20055;-59
2022/09/04 01:16:22;;;;;;;6.40;4.28;;;;;;;6.83;83.75;99683.16;4894603;29;20330;-59
2022/09/04 01:18:55;;;;;;;4.97;3.65;;;;;;;6.82;83.64;99690.25;4894135;29;20139;-59
2022/09/04 01:21:42;;;;;;;6.22;3.50;;;;;;;6.80;83.84;99692.28;4894706;29;20127;-58
2022/09/04 01:24:18;;;;;;;8.60;4.05;;;;;;;6.79;84.06;99687.19;4895748;29;20052;-59
2022/09/04 01:27:09;;;;;;;4.47;3.95;;;;;;;6.79;84.06;99697.72;4896397;29;20520;-58
2022/09/04 01:29:38;;;;;;;;;;;;;;;6.76;84.04;99685.78;4895995;29;20115;-59
2022/09/04 01:32:14;;;;;;;7.40;4.30;;;;;;;6.74;84.52;99692.28;4894593;29;20393;-59
2022/09/04 01:34:51;;;;;;;5.10;3.85;;;;;;;6.71;84.15;99696.13;4880257;29;20388;-59
2022/09/04 01:37:37;;;;;;;5.03;3.95;;;;;;;6.68;84.18;99693.91;4895457;29;20036;-59
2022/09/04 01:40:07;;;;;;;7.75;4.45;;;;;;;6.67;84.58;99691.47;4900399;29;20498;-59
2022/09/04 01:42:45;;;;;;;7.18;4.47;;;;;;;6.63;84.42;99696.34;4901816;29;20048;-59
2022/09/04 01:45:11;;;;;;;5.78;3.80;;;;;;;6.59;84.50;99698.56;4900547;29;20104;-58
2022/09/04 01:47:48;;;;;;;5.43;4.43;;;;;;;6.55;84.97;99697.34;4902276;29;20123;-60
2022/09/04 01:50:22;;;;;;;6.80;4.47;;;;;;;6.51;84.83;99701.41;4901950;29;20048;-60
2022/09/04 01:52:57;;;;;;;7.22;4.70;;;;;;;6.51;85.04;99697.97;4901519;29;20414;-58
2022/09/04 01:55:35;;;;;;;5.57;4.10;;;;;;;6.49;84.97;99698.16;4885390;29;20060;-58
2022/09/04 01:58:23;;;;;;;7.38;4.85;;;;;;;6.46;85.21;99698.56;4900706;29;20076;-59
2022/09/04 02:01:04;;;;;;;5.07;4.28;;;;;;;6.46;85.30;99695.94;4900660;29;20048;-58
2022/09/04 02:03:33;;;;;;;4.78;4.10;;;;;;;6.44;85.08;99694.50;4899744;29;20139;-60
2022/09/04 02:06:39;;;;;;;8.38;3.97;;;;;;;6.45;85.65;99691.69;4902153;29;20131;-59
2022/09/04 02:09:26;;;;;;;7.38;4.32;;;;;;;6.42;85.81;99688.66;4899907;29;20040;-59
2022/09/04 02:12:18;;;;;;;4.82;3.92;;;;;;;6.40;85.39;99688.84;4901803;29;20052;-58
2022/09/04 02:14:59;;;;;;;6.38;4.45;;;;;;;6.41;85.48;99698.34;4901610;29;20060;-60
2022/09/04 02:17:37;;;;;;;5.60;4.13;;;;;;;6.40;85.31;99688.84;4901589;29;20403;-59
2022/09/04 02:20:22;;;;;;;4.57;3.92;;;;;;;6.41;85.34;99692.28;4901897;29;20048;-60
2022/09/04 02:22:57;;;;;;;6.95;4.28;;;;;;;6.40;85.43;99680.94;4901371;29;20542;-58
2022/09/04 02:25:41;;;;;;;7.15;4.30;;;;;;;6.40;85.54;99686.22;4901763;29;20144;-59
2022/09/04 02:28:06;;;;;;;5.93;4.43;;;;;;;6.39;85.65;99687.22;4881851;29;20048;-59
2022/09/04 02:30:48;;;;;;;6.07;4.18;;;;;;;6.40;86.11;99688.03;4901410;29;20049;-59
2022/09/04 02:33:21;;;;;;;7.43;4.15;;;;;;;6.39;85.86;99689.88;4900481;29;20145;-58
2022/09/04 02:35:53;;;;;;;6.10;4.35;;;;;;;6.40;85.98;99688.03;4902279;29;20041;-59
2022/09/04 02:38:41;;;;;;;6.40;5.10;;;;;;;6.37;85.76;99686.63;4899818;29;20044;-59
2022/09/04 02:41:25;;;;;;;8.30;6.28;;;;;;;6.37;85.93;99692.69;4883473;29;20456;-58
2022/09/04 02:44:23;;;;;;;10.18;6.60;;;;;;;6.45;86.09;99688.25;4899063;29;20049;-59
2022/09/04 02:46:49;;;;;;;9.73;6.50;;;;;;;6.58;85.74;99683.78;4899704;29;20051;-59
2022/09/04 02:49:33;;;;;;;10.43;7.40;;;;;;;6.74;84.89;99697.56;4898370;29;20123;-60
2022/09/04 02:52:11;;;;;;;10.23;7.72;;;;;;;6.94;84.23;99694.88;4897416;29;20502;-58
2022/09/04 02:55:01;;;;;;;8.10;6.40;;;;;;;7.17;83.52;99687.31;4896997;29;20395;-60
2022/09/04 02:57:42;;;;;;;7.40;5.85;;;;;;;7.40;82.90;99692.09;4896869;29;20056;-59
2022/09/04 03:00:14;;;;;;;7.68;6.30;;;;;;;7.61;81.71;99698.09;4898753;29;20423;-58
2022/09/04 03:02:52;;;;;;;7.05;5.13;;;;;;;7.80;79.87;99694.56;4896975;29;20458;-59
2022/09/04 03:05:18;;;;;;;6.13;4.45;;;;;;;7.93;79.04;99697.13;4898140;29;20053;-60
2022/09/04 03:07:56;;;;;;;5.22;4.20;;;;;;;8.06;78.71;99696.25;4897250;29;20052;-59
2022/09/04 03:10:30;;;;;;;4.30;3.60;;;;;;;8.26;77.29;99698.72;4898545;29;20078;-58
2022/09/04 03:13:09;;;;;;;5.57;4.32;;;;;;;8.37;76.46;99698.03;4880265;29;20135;-58
2022/09/04 03:15:50;;;;;;;4.23;3.50;;;;;;;8.60;75.31;99700.13;4897730;29;20081;-57
2022/09/04 03:18:36;;;;;;;4.97;3.35;;;;;;;8.75;74.59;99697.13;4896874;29;20135;-59
2022/09/04 03:21:23;;;;;;;3.88;3.20;;;;;;;8.93;73.75;99692.91;4885624;29;20100;-58
2022/09/04 03:23:53;;;;;;;5.28;3.47;;;;;;;9.14;73.05;99700.41;4878645;29;20136;-58
2022/09/04 03:26:51;;;;;;;4.75;3.25;;;;;;;9.35;71.51;99693.06;4895029;29;20052;-59
2022/09/04 03:29:29;;;;;;;4.47;3.10;;;;;;;9.57;70.26;99696.88;4898482;29;20454;-59
2022/09/04 03:32:15;;;;;;;4.18;3.22;;;;;;;9.82;69.18;99696.72;4883092;29;20473;-59
2022/09/04 03:35:05;;;;;;;4.68;3.28;;;;;;;9.99;68.42;99691.59;4896664;29;20099;-59
2022/09/04 03:37:34;;;;;;;5.55;3.50;;;;;;;10.18;67.37;99695.81;4896775;29;20131;-59
2022/09/04 03:40:24;;;;;;;4.80;3.30;;;;;;;10.36;66.90;99694.97;4897586;29;20051;-59
2022/09/04 03:43:09;;;;;;;4.75;3.50;;;;;;;10.52;66.07;99693.47;4881104;29;20040;-58
2022/09/04 03:45:53;;;;;;;3.95;3.00;;;;;;;10.67;64.64;99696.47;4897772;29;20103;-59
2022/09/04 03:48:34;;;;;;;4.18;2.92;;;;;;;10.87;64.42;99700.63;4897484;29;20487;-59
2022/09/04 03:51:24;;;;;;;4.13;3.38;;;;;;;11.01;63.66;99698.56;4897969;29;20071;-60
2022/09/04 03:54:22;;;;;;;3.90;3.03;;;;;;;11.09;62.78;99693.69;4897373;29;20047;-60
2022/09/04 03:56:57;;;;;;;4.65;3.55;;;;;;;11.24;62.25;99700.38;4877919;29;20065;-61
2022/09/04 03:59:41;;;;;;;5.45;3.55;;;;;;;11.40;61.84;99696.97;4897077;29;20136;-59
2022/09/04 04:02:32;;;;;;;3.80;2.78;;;;;;;11.54;60.90;99690.34;4895743;29;20044;-58
2022/09/04 04:05:17;;;;;;;5.85;3.28;;;;;;;11.69;60.74;99695.16;4895861;29;20182;-59
2022/09/04 04:07:53;;;;;;;5.20;3.20;;;;;;;11.79;59.89;99689.22;4895435;29;20041;-59
2022/09/04 04:10:49;;;;;;;4.30;3.25;;;;;;;11.91;59.29;99689.19;4896061;29;20491;-59
2022/09/04 04:13:27;;;;;;;9.05;3.58;;;;;;;11.81;59.61;99695.91;4897019;29;20056;-59
2022/09/04 04:16:15;;;;;;;5.53;3.47;;;;;;;11.90;59.76;99692.91;4890991;29;20349;-59
2022/09/04 04:19:02;;;;;;;8.25;3.35;;;;;;;12.08;58.90;99692.69;4886444;29;20052;-60
2022/09/04 04:21:59;;;;;;;6.45;3.58;;;;;;;12.05;58.80;99698.47;4895796;29;20520;-60
2022/09/04 04:24:37;;;;;;;7.40;3.45;;;;;;;11.88;59.24;99698.44;4894806;29;20502;-59
2022/09/04 04:27:20;;;;;;;5.55;3.42;;;;;;;11.72;59.91;99702.66;4897072;29;20047;-59
2022/09/04 04:29:54;;;;;;;4.25;3.40;;;;;;;11.55;60.01;99691.97;4896911;29;20052;-58
2022/09/04 04:32:35;;;;;;;7.10;3.33;;;;;;;11.42;60.36;99694.91;4895536;29;20498;-59
2022/09/04 04:35:07;;;;;;;6.75;3.67;;;;;;;11.31;60.77;99707.16;4896505;29;20044;-60
2022/09/04 04:38:02;;;;;;;3.10;2.67;;;;;;;11.26;60.91;99704.38;4897106;29;20104;-60
2022/09/04 04:41:06;;;;;;;3.90;3.50;;;;;;;11.27;60.67;99705.22;4893803;29;20052;-60
2022/09/04 04:43:53;;;;;;;4.05;3.22;;;;;;;11.22;60.95;99705.91;4884313;29;20391;-60
2022/09/04 04:46:38;;;;;;;5.53;3.20;;;;;;;11.15;60.89;99702.56;4861890;29;20053;-60
2022/09/04 04:49:55;;;;;;;5.13;3.95;;;;;;;11.09;61.07;99704.31;4888572;29;20131;-58
2022/09/04 04:52:34;;;;;;;7.57;4.25;;;;;;;10.91;61.57;99702.59;4826926;29;20532;-59
2022/09/04 04:55:12;;;;;;;4.97;3.83;;;;;;;10.80;61.85;99707.91;4854736;29;20057;-59
2022/09/04 04:57:56;;;;;;;6.18;4.00;;;;;;;10.65;62.73;99695.13;4878301;29;20309;-60
2022/09/04 05:00:26;;;;;;;7.07;4.20;;;;;;;10.60;63.71;99695.78;4884508;29;20052;-60
2022/09/04 05:03:14;;;;;;;7.72;4.38;;;;;;;10.50;64.04;99687.63;4878901;29;20093;-58
2022/09/04 05:05:58;;;;;;;5.97;4.30;;;;;;;10.51;64.05;99697.16;4884930;29;20041;-60
2022/09/04 05:08:42;;;;;;;4.95;4.03;;;;;;;10.54;64.50;99699.34;4896264;29;20517;-61
2022/09/04 05:11:20;;;;;;;7.85;3.97;;;;;;;10.51;64.39;99699.00;4895521;29;20059;-59
2022/09/04 05:14:22;;;;;;;6.65;4.50;;;;;;;10.51;64.77;99693.72;4895886;29;20063;-59
2022/09/04 05:17:14;;;;;;;6.35;4.85;;;;;;;10.56;64.64;99704.41;4895364;29;20068;-59
2022/09/04 05:19:58;;;;;;;9.02;5.68;;;;;;;10.55;64.28;99703.63;4893022;29;20044;-59
2022/09/04 05:22:31;;;;;;;11.25;5.90;;;;;;;10.41;65.75;99695.09;4895747;29;20088;-60
2022/09/04 05:25:15;;;;;;;12.60;7.50;;;;;;;10.42;66.01;99699.34;4895908;29;20139;-60
2022/09/04 05:27:47;;;;;;;13.85;8.27;;;;;;;10.36;64.79;99696.81;4895058;29;20056;-59
2022/09/04 05:30:26;;;;;;;10.23;6.22;;;;;;;10.45;65.12;99701.53;4875954;29;20052;-60
2022/09/04 05:33:02;;;;;;;5.07;3.95;;;;;;;10.32;65.65;99693.78;4876457;29;20502;-58
2022/09/04 05:35:48;;;;;;;5.13;3.30;;;;;;;10.45;65.51;99708.69;4875686;29;20104;-60
2022/09/04 05:38:20;;;;;;;5.03;3.65;;;;;;;10.43;65.89;99708.91;4879169;29;20056;-57
2022/09/04 05:40:52;;;;;;;3.53;3.10;;;;;;;10.43;63.06;99711.56;4894408;29;20429;-58
2022/09/04 05:43:41;;;;;;;4.65;2.53;;;;;;;10.43;63.38;99708.09;4894612;29;20581;-60
2022/09/04 05:46:30;;;;;;;3.30;3.00;;;;;;;10.45;62.94;99706.84;4865158;29;20537;-59
2022/09/04 05:49:06;;;;;;;4.72;3.33;;;;;;;10.53;63.47;99708.34;4876787;29;20396;-59
2022/09/04 05:52:02;;;;;;;5.78;3.55;;;;;;;10.61;63.48;99709.84;4890148;29;20105;-59
2022/09/04 05:54:47;;;;;;;8.50;3.40;;;;;;;10.64;63.06;99710.19;4894449;29;20041;-61
2022/09/04 05:57:44;;;;;;;4.20;2.80;;;;;;;10.72;64.02;99708.25;4895662;29;20063;-61
2022/09/04 06:00:14;;;;;;;4.20;3.15;;;;;;;10.76;62.53;99710.19;4878352;29;20120;-60
2022/09/04 06:03:08;;;;;;;3.35;2.50;;;;;;;10.90;61.51;99711.56;4895383;29;20059;-60
2022/09/04 06:06:02;;;;;;;3.70;2.30;;;;;;;11.00;61.51;99710.19;4893305;29;20052;-61
2022/09/04 06:09:09;;;;;;;3.50;2.58;;;;;;;10.88;60.53;99697.75;4896126;29;20096;-58
2022/09/04 06:11:48;;;;;;;4.05;2.55;;;;;;;11.02;60.89;99710.75;4895191;29;20151;-60
2022/09/04 06:14:23;;;;;;;5.60;2.25;;;;;;;11.01;60.08;99725.06;4894522;29;20048;-58
2022/09/04 06:17:18;;;;;;;3.80;2.40;;;;;;;11.06;59.77;99715.38;4895590;29;20052;-59
2022/09/04 06:19:51;;;;;;;2.75;2.03;;;;;;;11.14;59.76;99722.97;4878802;29;20057;-59
2022/09/04 06:22:41;;;;;;;3.10;2.25;;;;;;;11.20;59.29;99721.25;4895207;29;20045;-59
2022/09/04 06:25:19;;;;;;;3.30;1.83;;;;;;;11.26;58.72;99716.84;4898278;29;20403;-60
2022/09/04 06:28:03;;;;;;;2.38;1.73;;;;;;;11.24;58.34;99717.09;4897747;29;20045;-59
2022/09/04 06:30:52;;;;;;;2.10;1.90;;;;;;;11.33;57.94;99723.66;4897368;29;20048;-60
2022/09/04 06:33:32;;;;;;;6.00;1.95;;;;;;;11.37;58.53;99716.03;4898061;29;20052;-60
2022/09/04 06:36:13;;;;;;;4.50;1.63;;;;;;;11.41;57.53;99722.47;4897870;29;20053;-57
2022/09/04 06:38:54;;;;;;;2.15;1.63;;;;;;;11.41;56.77;99721.66;4899440;29;20107;-59
2022/09/04 06:41:37;;;;;;;2.08;1.50;;;;;;;11.45;56.81;99717.50;4896938;29;20430;-60
2022/09/04 06:44:19;;;;;;;2.00;1.70;;;;;;;11.52;56.33;99711.00;4882375;29;20044;-57
2022/09/04 06:47:24;;;;;;;3.47;1.60;;;;;;;11.65;57.06;99709.13;4880642;29;20080;-59
2022/09/04 06:49:57;;;;;;;1.50;1.40;;;;;;;11.76;56.26;99719.72;4875863;29;20133;-60
2022/09/04 06:53:02;;;;;;;3.60;3.03;;;;;;;11.80;55.59;99720.06;4896808;29;20052;-60
2022/09/04 06:55:32;;;;;;;2.20;1.50;;;;;;;11.86;55.69;99715.69;4889915;29;20143;-59
2022/09/04 06:58:01;;;;;;;1.90;1.52;;;;;;;11.95;55.29;99711.59;4896024;29;20458;-60
2022/09/04 07:00:29;;;;;;;2.88;1.60;;;;;;;12.07;54.28;99714.19;4896301;29;20072;-60
2022/09/04 07:03:33;;;;;;;1.88;1.70;;;;;;;12.21;54.70;99721.63;4894901;29;20520;-60
2022/09/04 07:06:21;;;;;;;1.60;1.50;;;;;;;12.35;54.10;99716.00;4894497;29;20140;-61
2022/09/04 07:09:13;;;;;;;1.88;1.65;;;;;;;12.47;54.41;99717.53;4894709;29;20063;-59
2022/09/04 07:12:23;;;;;;;1.83;1.33;;;;;;;12.64;53.25;99717.53;4882464;29;20406;-59
2022/09/04 07:15:07;;;;;;;2.28;1.40;;;;;;;12.87;51.08;99721.06;4873357;29;20045;-60
2022/09/04 07:17:39;;;;;;;5.28;1.48;;;;;;;13.11;50.65;99705.69;4896062;29;20056;-60
2022/09/04 07:20:05;;;;;;;1.30;1.20;;;;;;;13.45;49.70;99710.94;4891281;29;20119;-61
2022/09/04 07:23:08;;;;;;;4.22;1.60;;;;;;;13.70;49.51;99705.91;4892855;29;20052;-61
2022/09/04 07:25:56;;;;;;;2.90;1.48;;;;;;;13.62;49.01;99715.16;4895100;29;20058;-61
2022/09/04 07:28:46;;;;;;;1.52;1.20;;;;;;;13.38;49.21;99703.13;4894911;29;20052;-59
2022/09/04 07:31:30;;;;;;;1.80;1.30;;;;;;;13.25;48.85;99704.31;4876847;29;20518;-62
2022/09/04 07:34:09;;;;;;;2.28;1.23;;;;;;;13.03;48.92;99706.09;4892482;29;20159;-58
2022/09/04 07:36:44;;;;;;;3.15;1.50;;;;;;;13.02;49.08;99688.53;4862024;29;20044;-61
2022/09/04 07:39:46;;;;;;;3.30;1.80;;;;;;;13.03;49.51;99696.28;4895468;29;20229;-60
2022/09/04 07:42:24;;;;;;;2.78;1.80;;;;;;;13.23;49.00;99695.72;4878475;29;20107;-60
2022/09/04 07:45:06;;;;;;;2.60;1.58;;;;;;;13.36;48.65;99695.41;4877594;29;20195;-61
2022/09/04 07:47:42;;;;;;;1.40;1.30;;;;;;;13.13;48.44;99703.59;4895183;29;20036;-60
2022/09/04 07:51:03;;;;;;;3.28;1.50;;;;;;;13.10;48.90;99699.56;4895152;29;20051;-58
2022/09/04 07:53:57;;;;;;;1.90;1.60;;;;;;;13.44;48.31;99688.00;4846487;29;20052;-61
2022/09/04 07:57:00;;;;;;;1.60;1.50;;;;;;;13.69;45.35;99684.84;4895559;29;20067;-60
2022/09/04 07:59:48;;;;;;;2.03;1.65;;;;;;;13.62;45.70;99693.03;4896486;29;20656;-60
2022/09/04 08:02:22;;;;;;;1.60;1.50;;;;;;;13.56;45.27;99678.03;4878419;29;20048;-62
2022/09/04 08:04:57;;;;;;;1.98;1.48;;;;;;;13.62;45.79;99683.19;4892975;29;20056;-60
2022/09/04 08:07:47;;;;;;;2.63;1.63;;;;;;;13.61;45.42;99678.91;4896002;29;20036;-61
2022/09/04 08:10:44;;;;;;;3.97;1.65;;;;;;;13.39;45.54;99680.78;4897452;29;20079;-60
2022/09/04 08:13:36;;;;;;;3.05;1.50;;;;;;;13.43;46.09;99676.56;4897698;29;20426;-59
2022/09/04 08:16:07;;;;;;;2.53;1.80;;;;;;;13.33;45.70;99679.91;4895552;29;20128;-59
2022/09/04 08:18:56;;;;;;;2.65;1.50;;;;;;;13.03;44.83;99675.00;4894469;29;20044;-61
2022/09/04 08:21:26;;;;;;;4.90;2.05;;;;;;;13.02;45.75;99676.03;4892536;29;20570;-61
2022/09/04 08:24:13;;;;;;;3.33;2.33;;;;;;;13.10;44.81;99664.16;4878253;29;20101;-60
2022/09/04 08:26:48;;;;;;;3.00;2.17;;;;;;;12.93;44.94;99672.97;4892180;29;20562;-59
2022/09/04 08:29:41;;;;;;;5.13;2.65;;;;;;;12.95;44.86;99670.09;4897192;29;20510;-60
2022/09/04 08:32:28;;;;;;;2.75;1.85;;;;;;;13.13;42.89;99661.00;4885515;29;20147;-60
2022/09/04 08:35:16;;;;;;;1.60;1.50;;;;;;;13.31;41.51;99659.91;4896847;29;20185;-61
2022/09/04 08:37:59;;;;;;;1.00;1.00;;;;;;;13.44;40.70;99664.84;4895679;29;20040;-61
2022/09/04 08:41:03;;;;;;;1.95;1.40;;;;;;;13.61;41.03;99654.91;4897015;29;20075;-61
2022/09/04 08:43:43;;;;;;;2.20;1.50;;;;;;;13.91;40.46;99650.16;4894678;29;20522;-61
2022/09/04 08:46:47;;;;;;;6.60;1.53;;;;;;;14.28;39.98;99650.19;4895634;29;20052;-61
2022/09/04 08:49:32;;;;;;;1.25;1.15;;;;;;;14.59;38.87;99645.09;4886866;29;20289;-62
2022/09/04 08:52:22;;;;;;;3.90;1.67;;;;;;;14.84;39.17;99655.13;4880021;29;20040;-62
2022/09/04 08:54:53;;;;;;;;;;;;;;;14.67;40.55;99655.28;4896966;29;20475;-62
2022/09/04 08:57:36;;;;;;;1.92;1.52;;;;;;;14.23;42.54;99663.47;4896500;29;20393;-60
2022/09/04 09:00:17;;;;;;;1.40;1.30;;;;;;;13.80;43.32;99657.25;4895859;29;20075;-62
2022/09/04 09:03:20;;;;;;;2.72;1.60;;;;;;;13.57;43.91;99651.16;4895162;29;20056;-61
2022/09/04 09:06:11;;;;;;;2.28;1.85;;;;;;;13.55;44.35;99655.13;4896478;29;20284;-61
2022/09/04 09:09:13;;;;;;;2.00;1.50;;;;;;;13.44;44.47;99653.41;4895343;29;20056;-63
2022/09/04 09:12:00;;;;;;;2.17;1.10;;;;;;;13.23;44.14;99644.34;4896654;29;20041;-62
2022/09/04 09:15:04;;;;;;;2.38;1.60;;;;;;;13.25;43.60;99643.09;4895475;29;20048;-62
2022/09/04 09:17:38;;;;;;;1.30;1.20;;;;;;;13.12;42.42;99649.56;4894988;29;20059;-60
2022/09/04 09:20:29;;;;;;;1.98;1.60;;;;;;;12.99;43.27;99639.28;4896574;29;20296;-61
2022/09/04 09:23:14;;;;;;;1.98;1.60;;;;;;;13.05;43.07;99643.59;4895016;29;20053;-61
2022/09/04 09:26:09;;;;;;;3.95;1.83;;;;;;;13.21;42.61;99644.59;4896508;29;20056;-63
2022/09/04 09:28:53;;;;;;;4.53;1.67;;;;;;;13.46;41.52;99641.44;4895167;29;20048;-60
2022/09/04 09:31:46;;;;;;;1.50;1.40;;;;;;;13.67;41.23;99642.47;4896321;29;20048;-61
2022/09/04 09:34:30;;;;;;;1.50;1.40;;;;;;;13.95;39.94;99637.94;4896551;29;20056;-61
2022/09/04 09:37:20;;;;;;;1.80;1.50;;;;;;;14.16;39.62;99638.91;4896197;29;20045;-61
2022/09/04 09:40:25;;;;;;;1.67;1.50;;;;;;;14.20;39.23;99640.81;4895028;29;20140;-61
2022/09/04 09:43:13;;;;;;;1.63;1.30;;;;;;;14.34;38.22;99640.38;4860795;29;20052;-62
2022/09/04 09:45:51;;;;;;;1.77;1.55;;;;;;;14.53;38.06;99644.28;4877450;29;20511;-61
2022/09/04 09:48:54;;;;;;;2.20;1.60;;;;;;;14.83;38.09;99650.88;4877811;29;20145;-60
2022/09/04 09:51:49;;;;;;;1.40;1.30;;;;;;;14.93;38.62;99635.69;4880706;29;20400;-61
2022/09/04 09:54:36;;;;;;;1.90;1.60;;;;;;;14.58;39.80;99638.97;4896115;29;20104;-63
2022/09/04 09:57:20;;;;;;;1.85;1.40;;;;;;;14.40;40.75;99634.03;4895825;29;20060;-62
2022/09/04 10:00:11;;;;;;;1.65;1.40;;;;;;;14.33;40.79;99639.59;4898447;29;20041;-61
2022/09/04 10:02:53;;;;;;;2.33;1.60;;;;;;;14.19;40.73;99635.75;4899889;29;20087;-62
2022/09/04 10:05:36;;;;;;;3.05;2.00;;;;;;;14.08;41.17;99638.31;4898647;29;20044;-60
2022/09/04 10:08:01;;;;;;;1.67;1.58;;;;;;;14.02;41.36;99639.31;4898299;29;20052;-62
2022/09/04 10:10:48;;;;;;;3.60;1.90;;;;;;;13.89;42.05;99636.28;4899737;29;20414;-60
2022/09/04 10:13:24;;;;;;;3.17;2.20;;;;;;;13.88;41.90;99632.81;4898181;29;20131;-61
2022/09/04 10:15:53;;;;;;;3.83;2.20;;;;;;;13.98;41.40;99642.75;4898592;29;20544;-61
2022/09/04 10:18:31;;;;;;;1.55;1.40;;;;;;;14.04;39.87;99637.22;4898380;29;20096;-61
2022/09/04 10:21:00;;;;;;;4.65;2.28;;;;;;;14.12;39.81;99643.97;4899514;29;20514;-61
2022/09/04 10:23:32;;;;;;;1.80;1.70;;;;;;;14.24;40.01;99641.13;4897941;29;20071;-61
2022/09/04 10:26:38;;;;;;;2.05;1.80;;;;;;;14.25;40.91;99637.38;4899779;29;20051;-61
2022/09/04 10:29:22;;;;;;;2.85;1.63;;;;;;;14.20;41.25;99637.34;4899686;29;20057;-60
2022/09/04 10:32:00;;;;;;;3.25;2.30;;;;;;;14.10;41.82;99643.41;4899373;29;20469;-59
2022/09/04 10:34:35;;;;;;;3.75;1.98;;;;;;;14.04;41.61;99634.56;4899250;29;20040;-60
2022/09/04 10:37:04;;;;;;;2.22;1.63;;;;;;;14.08;40.71;99638.31;4899321;29;20538;-61
2022/09/04 10:42:42;;;;;;;2.83;1.67;;;;;;;14.48;40.94;99629.00;4878570;29;20049;-61
2022/09/04 10:45:34;;;;;;;2.75;2.10;;;;;;;14.88;40.25;99629.53;4897891;29;20483;-61
2022/09/04 10:48:08;;;;;;;3.35;1.75;;;;;;;15.30;38.36;99628.66;4897685;29;20143;-62
2022/09/04 10:51:14;;;;;;;1.90;1.70;;;;;;;15.52;37.54;99631.09;4899289;29;20076;-61
2022/09/04 10:53:50;;;;;;;4.28;1.40;;;;;;;15.21;39.13;99631.03;4887883;29;20413;-60
2022/09/04 10:56:25;;;;;;;1.58;1.35;;;;;;;15.10;39.08;99630.16;4898929;29;20065;-62
2022/09/04 10:59:14;;;;;;;2.75;1.50;;;;;;;14.85;39.06;99630.84;4897624;29;20040;-61
2022/09/04 11:01:55;;;;;;;2.63;1.90;;;;;;;14.83;40.14;99626.84;4899322;29;20506;-62
2022/09/04 11:04:39;;;;;;;1.67;1.30;;;;;;;14.77;39.49;99626.81;4898516;29;20498;-62
2022/09/04 11:07:42;;;;;;;5.25;1.70;;;;;;;14.74;39.36;99631.88;4881694;29;20055;-62
2022/09/04 11:10:46;;;;;;;4.18;1.60;;;;;;;14.64;39.46;99627.25;4896505;29;20494;-61
2022/09/04 11:13:40;;;;;;;1.63;1.30;;;;;;;14.64;38.62;99629.94;4897265;29;20055;-62
2022/09/04 11:16:08;;;;;;;1.40;1.30;;;;;;;14.54;39.87;99632.56;4897642;29;20044;-60
2022/09/04 11:18:59;;;;;;;2.03;1.55;;;;;;;14.51;39.55;99623.19;4898389;29;20502;-61
2022/09/04 11:21:57;;;;;;;2.22;2.00;;;;;;;14.56;40.43;99619.78;4898865;29;20151;-63
2022/09/04 11:24:48;;;;;;;5.20;2.00;;;;;;;14.62;39.95;99624.06;4897101;29;20131;-62
2022/09/04 11:27:23;;;;;;;1.70;1.60;;;;;;;14.65;39.42;99612.09;4898418;29;20434;-61
2022/09/04 11:30:01;;;;;;;3.85;1.95;;;;;;;14.62;39.39;99608.06;4898420;29;20056;-61
2022/09/04 11:32:56;;;;;;;2.92;2.20;;;;;;;14.46;38.84;99606.31;4881707;29;20396;-62
2022/09/04 11:36:00;;;;;;;5.25;2.60;;;;;;;14.38;38.86;99602.25;4896812;29;20419;-62
2022/09/04 11:38:42;;;;;;;6.63;2.58;;;;;;;14.67;38.80;99607.28;4877680;29;20055;-61
2022/09/04 11:41:17;;;;;;;2.00;1.80;;;;;;;14.79;37.89;99604.41;4897776;29;20056;-61
2022/09/04 11:43:49;;;;;;;10.05;3.28;;;;;;;14.93;37.97;99608.19;4896707;29;20040;-60
2022/09/04 11:46:42;;;;;;;4.85;2.22;;;;;;;15.09;37.64;99611.72;4896693;29;20147;-61
2022/09/04 11:50:05;;;;;;;2.67;1.90;;;;;;;15.41;37.43;99599.03;4897865;29;20045;-61
2022/09/04 11:52:50;;;;;;;2.22;1.60;;;;;;;15.51;36.81;99600.13;4876996;29;20173;-62
2022/09/04 11:55:16;;;;;;;1.55;1.40;;;;;;;15.47;37.33;99612.38;4876561;29;20049;-61
2022/09/04 11:58:20;;;;;;;4.03;1.38;;;;;;;15.14;37.96;99596.53;4886039;29;20057;-61
2022/09/04 12:01:15;;;;;;;2.03;1.30;;;;;;;14.90;39.17;99612.19;4891210;29;20573;-61
2022/09/04 12:04:03;;;;;;;3.83;2.63;;;;;;;14.86;39.28;99611.13;4880319;29;20048;-61
2022/09/04 12:06:45;;;;;;;3.78;2.67;;;;;;;14.76;39.28;99609.22;4893927;29;20045;-61
2022/09/04 12:09:52;;;;;;;2.88;1.63;;;;;;;14.80;38.65;99606.03;4881289;29;20052;-61
2022/09/04 12:12:40;;;;;;;2.13;1.90;;;;;;;14.94;38.21;99607.13;4882331;29;20045;-61
2022/09/04 12:15:35;;;;;;;2.90;2.10;;;;;;;14.88;39.10;99611.66;4896062;29;20104;-61
2022/09/04 12:18:04;;;;;;;2.10;1.50;;;;;;;14.81;39.60;99603.09;4896457;29;20368;-61
2022/09/04 12:20:44;;;;;;;2.13;1.77;;;;;;;14.84;39.14;99604.44;4897293;29;20052;-61
2022/09/04 12:23:31;;;;;;;3.97;3.03;;;;;;;14.87;38.91;99594.03;4896050;29;20116;-63
2022/09/04 12:26:16;;;;;;;3.63;2.97;;;;;;;14.83;39.04;99595.63;4886674;29;20049;-63
2022/09/04 12:29:30;;;;;;;3.58;2.80;;;;;;;14.85;39.21;99603.34;4883724;29;20044;-62
2022/09/04 12:32:24;;;;;;;2.33;2.10;;;;;;;14.83;39.16;99595.63;4862326;29;20057;-60
2022/09/04 12:35:38;;;;;;;4.00;1.88;;;;;;;14.84;38.59;99593.75;4876589;29;20426;-61
2022/09/04 12:38:48;;;;;;;3.60;1.25;;;;;;;14.53;37.68;99599.75;4895799;29;20052;-61
2022/09/04 12:41:19;;;;;;;1.90;1.45;;;;;;;14.24;38.39;99601.13;4895605;29;20056;-61
2022/09/04 12:43:53;;;;;;;3.00;1.90;;;;;;;14.16;38.21;99590.94;4876499;29;20148;-62
2022/09/04 12:46:34;;;;;;;2.70;1.77;;;;;;;14.09;38.75;99599.94;4885483;29;20513;-60
2022/09/04 12:49:32;;;;;;;4.50;2.25;;;;;;;14.14;40.15;99590.38;4895580;29;20076;-62
2022/09/04 12:52:17;;;;;;;3.15;1.85;;;;;;;14.05;40.36;99585.50;4895450;29;20056;-61
2022/09/04 12:54:49;;;;;;;2.53;1.92;;;;;;;14.02;39.97;99577.22;4897100;29;20048;-62
2022/09/04 12:57:36;;;;;;;1.55;1.42;;;;;;;14.16;40.37;99590.94;4895043;29;20426;-61
2022/09/04 13:00:09;;;;;;;2.08;1.88;;;;;;;14.25;40.31;99584.06;4880413;29;20088;-61